Portada
METAR-TAF:

METAR-TAF

Aeroports :

Zahedan, Iran

latitud: 29-28N, longitud: 060-53E, altitud: 1370 m

Observació

L'informe es va fer fa 36 minuts, a les 09:30 UTC
Vent 10 kt del Est/Sud-Est
Temperatura 16°C
Humitat 34%
Pressió 1021 hPa
Visibilitat 10 km o més
Escasses núvols a una alçada de 4000 ft

METAR: OIZH 150930Z 11010KT 9999 FEW040 16/00 Q1020 A3014

Hora: 13:36 (10:06 UTC)

Pronòstic

L'informe es va fer fa 4 hores i 36 minuts, a les 05:30 UTC
Pronòstic vàlid del 15 a les 06 UTC al 16 a les 12 UTC
Vent 8 kt del Sud/Sud-Est
Visibilitat: 9000 m

TAF: OIZH 150530Z 1506/1612 16008KT 9000 NSC

Observacions i pronòstics meteorològics de més de 4000 aeroports (METAR i TAF).

Les estacions disponibles són els punts grocs i vermells al mapa.

Posi el ratolí al punt desitjat per veure el nom de l'estació.

Feu clic per veure les observacions i els pronòstics meteorològics.

Per canviar el mapa: feu clic els botons verds amb una creu de color negre per apropar; al botó verd amb un guió per allunyar la imatge; o en les fletxes verdes per a mapes adjacents.


METAR-TAF: